Amawalk, NY

10:53 AM EDT on August 27, 2014 (GMT -0400)
Just East of the JV Mall off Gomer | Change Station
CLOSE
Current Station
Personal Weather Station
Location: Yorktown Heights, NY
Elevation: 584 ft
Nearby Weather Stations

Elev 584 ft 41.33 °N, 73.79 °W | Updated 2 minutes ago

Clear
Clear
81.0 °F
Feels Like 83 °F
N
3.7
Wind Variable Wind from WSW

Today
High -- | Low -- °F
--% Chance of Precip.
Yesterday
High -- | Low -- °F
Precip. -- in
6:16 AM 7:35 PM
Waxing Crescent, 4% visible
Pressure 30.03 in
Visibility 10.0 miles
Clouds Clear
Heat Index 83 °F
Dew Point 66 °F
Humidity 60%
Rainfall 0.00 in
Snow Depth Not available.
UV 5 out of 12
Pollen 8.90 out of 12
PM2.5 Good
Flu Activity Not available.
METAR KDXR 271353Z 21005KT 10SM CLR 25/17 A3004 RMK AO2 SLP169 T02500172

More Conditions Fewer Conditions

Pressure 30.03 in
Visibility 10.0 miles
Clouds Clear
Heat Index 83 °F
Dew Point 66 °F
Humidity 60%
Rainfall 0.00 in
Snow Depth Not available.
UV 5 out of 12
Pollen 8.90 out of 12
PM2.5 Good
Flu Activity Not available.
METAR KDXR 271353Z 21005KT 10SM CLR 25/17 A3004 RMK AO2 SLP169 T02500172

More Conditions Fewer Conditions

10-Day Weather Forecast

Almanac

Astronomy

Aug. 27, 2014 Rise Set
Actual Time 6:16 AM EDT 7:35 PM EDT
Civil Twilight 5:47 AM EDT 8:04 PM EDT
Nautical Twilight 5:13 AM EDT 8:38 PM EDT
Astronomical Twilight 4:36 AM EDT 9:15 PM EDT
Moon 8:11 AM EDT 8:24 PM EDT
Length of Visible Light 14h 16m
Length of Day
13h 19m
Tomorrow will be 2m 36s shorter.
Waxing Crescent, 4% of the Moon is Illuminated
Today
Waxing Crescent
Sep 2
First Quarter
Sep 8
Full
Sep 15
Last Quarter
Sep 24
New

Today's Extremes

State Highs State Lows

Community

WunderPhotos

Upload Photos

1,747,701 photos uploaded!

Nearby

Air Quality

  Air Quality AQ Index Pollutant
Yesterday Good
OZONE
Yesterday Good
PM2.5
Current Good
PM2.5
Wednesday Moderate
OZONE
Wednesday Moderate
PM2.5

Snow Depth

Station Depth Elevation
No new snow has been reported.

Earthquake Activity

City Distance Mag. Time & Date
No recent earthquake activity has been reported nearby.
Minimum magnitude displayed is 2.5.

Coastal Water Temperatures

Place Temperature
Bridgeport, CT 75.9 °F

Nearby Weather Stations